KMYL

Details ICAO KMYL (MYL)
Name Mc Call Muni
Region United States
Timezone America/Boise (UTC-7.0)
Plans Departing 16
Arriving 13
Stats Elevation 5,020 ft / 1,530 m (AMSL)
Location 44.888738° -116.101747°
Runways 1
Magnetic Variation 13.584° E
Sunrise 2017-12-14 15:16:18 UTC / 2017-12-14 08:16:18 Local
Sunset 2017-12-15 00:04:58 UTC / 2017-12-14 17:04:58 Local
Advertisement - Login to hide

Runways

ID Width Length Bearing (true) Bearing (mag) Surface Threshold Offset Overrun Length
16 75 ft / 23 m 6,113 ft / 1,863 m 178.61° 165.03° Asphalt 0 ft / 0 m 56 ft / 17 m
34 75 ft / 23 m 6,113 ft / 1,863 m 358.61° 345.03° Asphalt 0 ft / 0 m 0 ft / 0 m

Map

Weather


0- 5 10 15 20 25 30 35+ Temperature / ° C

Clouds and Precipitation
Forecast for 2017-12-15 00:00 UTC. Updated an hour ago

Ground ~20,000 ft ~40,000 ft Winds

METAR

KMYL 142351Z AUTO 00000KT 10SM CLR M03/M06 A3035 RMK AO2 SLP333 T10331056 11017 21067 56006

TAF

KMYL 142328Z 1500/1524 VRB04KT P6SM FEW002 FM150600 VRB03KT 1/2SM FZFG OVC002 FM151700 18005KT 5SM BR SCT005 BKN200

Frequencies

Recorded 119.92 MHz ASOS
Unicom 122.80 MHz CTAF/UNICOM
Warning: Do not use this data for real-world aviation or navigation. No guarantee of current accuracy is given.